Time;durP1;ratioP1;P1;durP2;ratioP2;P2;SDS_P1;SDS_P2;PMS_P1;PMS_P2;Temp;Humidity;BMP_temperature;BMP_pressure;BME280_temperature;BME280_humidity;BME280_pressure;Samples;Min_cycle;Max_cycle;Signal;HPM_P1;HPM_P2
2022/06/16 00:00:23;;;;;;;14.85;4.90;;;19.20;99.90;;;;;;5037798;28;20053;-58
2022/06/16 00:02:51;;;;;;;7.63;4.28;;;19.10;99.90;;;;;;5040017;28;20052;-57
2022/06/16 00:05:22;;;;;;;6.97;4.47;;;19.00;99.90;;;;;;5039525;28;20041;-58
2022/06/16 00:07:50;;;;;;;12.05;4.65;;;19.00;99.90;;;;;;5038603;28;20053;-60
2022/06/16 00:10:17;;;;;;;11.63;4.93;;;19.00;99.90;;;;;;5040680;28;20037;-59
2022/06/16 00:12:44;;;;;;;7.90;4.93;;;18.90;99.90;;;;;;5041284;28;20045;-60
2022/06/16 00:15:13;;;;;;;10.98;4.70;;;18.80;99.90;;;;;;5034158;28;20038;-59
2022/06/16 00:17:40;;;;;;;11.98;4.93;;;18.80;99.90;;;;;;5038790;28;20040;-57
2022/06/16 00:20:08;;;;;;;7.15;4.80;;;18.80;99.90;;;;;;5038858;28;20664;-59
2022/06/16 00:22:36;;;;;;;14.60;5.18;;;18.80;99.90;;;;;;5039622;28;20571;-59
2022/06/16 00:25:05;;;;;;;8.43;4.88;;;18.80;99.90;;;;;;5039351;28;20064;-58
2022/06/16 00:27:32;;;;;;;10.57;4.78;;;18.80;99.90;;;;;;5038426;28;20044;-59
2022/06/16 00:30:00;;;;;;;8.60;4.72;;;18.80;99.90;;;;;;5037169;28;20037;-59
2022/06/16 00:32:27;;;;;;;9.63;5.50;;;18.70;99.90;;;;;;5038765;28;20037;-58
2022/06/16 00:34:54;;;;;;;10.07;4.88;;;18.70;99.90;;;;;;5039754;28;20048;-58
2022/06/16 00:37:20;;;;;;;6.72;4.40;;;18.70;99.90;;;;;;5038651;28;20057;-57
2022/06/16 00:39:47;;;;;;;12.57;5.53;;;18.70;99.90;;;;;;5037341;28;20099;-58
2022/06/16 00:42:21;;;;;;;9.50;5.10;;;18.60;99.90;;;;;;5038815;28;20132;-59
2022/06/16 00:44:51;;;;;;;11.52;4.88;;;18.60;99.90;;;;;;5037739;28;20546;-60
2022/06/16 00:47:25;;;;;;;11.57;4.70;;;18.50;99.90;;;;;;5037561;28;20800;-60
2022/06/16 00:49:55;;;;;;;11.38;5.00;;;18.50;99.90;;;;;;5038271;28;20526;-57
2022/06/16 00:52:27;;;;;;;11.57;4.43;;;18.50;99.90;;;;;;5038709;28;20828;-58
2022/06/16 00:55:09;;;;;;;14.10;4.78;;;18.50;99.90;;;;;;5038729;28;20040;-57
2022/06/16 00:57:41;;;;;;;14.10;4.50;;;18.50;99.90;;;;;;5036763;28;20045;-57
2022/06/16 01:02:53;;;;;;;8.80;4.68;;;18.40;99.90;;;;;;5038440;28;20036;-59
2022/06/16 01:05:20;;;;;;;9.10;4.95;;;18.40;99.90;;;;;;5037619;28;20052;-59
2022/06/16 01:07:49;;;;;;;9.02;4.22;;;18.40;99.90;;;;;;5036444;28;20045;-60
2022/06/16 01:10:17;;;;;;;12.55;4.78;;;18.40;99.90;;;;;;5037588;28;20720;-58
2022/06/16 01:16:25;;;;;;;13.50;4.43;;;18.40;99.90;;;;;;5033954;28;20116;-59
2022/06/16 01:19:14;;;;;;;10.35;4.47;;;18.40;99.90;;;;;;5035670;28;20041;-57
2022/06/16 01:22:09;;;;;;;11.48;3.85;;;18.40;99.90;;;;;;5036349;28;20060;-59
2022/06/16 01:24:54;;;;;;;14.70;4.55;;;18.40;99.90;;;;;;5038354;28;20128;-58
2022/06/16 01:27:44;;;;;;;17.85;6.40;;;18.40;99.90;;;;;;5037448;28;20043;-58
2022/06/16 01:30:18;;;;;;;12.95;4.55;;;18.30;99.90;;;;;;5037806;28;20069;-55
2022/06/16 01:33:04;;;;;;;11.40;4.10;;;18.30;99.90;;;;;;5035735;28;20057;-59
2022/06/16 01:35:50;;;;;;;13.48;4.50;;;18.30;99.90;;;;;;5038261;28;20036;-58
2022/06/16 01:38:36;;;;;;;13.63;5.65;;;18.30;99.90;;;;;;5036234;28;20063;-59
2022/06/16 01:41:06;;;;;;;14.32;4.75;;;18.20;99.90;;;;;;5036368;28;20044;-57
2022/06/16 01:43:33;;;;;;;8.32;4.10;;;18.20;99.90;;;;;;5036508;28;20060;-58
2022/06/16 01:46:00;;;;;;;13.18;4.47;;;18.20;99.90;;;;;;5035970;28;20131;-60
2022/06/16 01:48:29;;;;;;;9.77;4.30;;;18.20;99.90;;;;;;5034971;28;20685;-58
2022/06/16 01:51:06;;;;;;;11.88;5.00;;;18.20;99.90;;;;;;5019058;28;20041;-58
2022/06/16 01:53:45;;;;;;;;;;;18.10;99.90;;;;;;5036994;28;20114;-57
2022/06/16 01:56:25;;;;;;;10.00;4.45;;;18.10;99.90;;;;;;5035910;28;19924;-60
2022/06/16 01:59:07;;;;;;;11.82;5.45;;;18.10;99.90;;;;;;5036209;28;20067;-60
2022/06/16 02:01:39;;;;;;;12.57;4.35;;;18.10;99.90;;;;;;5034211;28;20543;-57
2022/06/16 02:04:18;;;;;;;15.73;4.30;;;18.10;99.90;;;;;;5035467;28;20585;-60
2022/06/16 02:06:50;;;;;;;9.15;4.38;;;18.00;99.90;;;;;;5035796;28;20060;-59
2022/06/16 02:09:30;;;;;;;14.70;5.22;;;18.00;99.90;;;;;;5036868;28;20051;-58
2022/06/16 02:12:01;;;;;;;12.20;4.32;;;18.00;99.90;;;;;;5037299;28;20075;-58
2022/06/16 02:14:45;;;;;;;10.32;5.18;;;18.00;99.90;;;;;;5036303;28;20741;-59
2022/06/16 02:17:24;;;;;;;9.60;4.45;;;18.00;99.90;;;;;;5034156;28;20053;-58
2022/06/16 02:19:50;;;;;;;7.93;3.83;;;18.00;99.90;;;;;;5034077;28;20733;-57
2022/06/16 02:22:17;;;;;;;12.07;4.55;;;18.00;99.90;;;;;;5037091;28;20096;-58
2022/06/16 02:24:47;;;;;;;8.45;4.65;;;18.00;99.90;;;;;;5035047;28;20057;-57
2022/06/16 02:27:14;;;;;;;6.60;4.15;;;18.00;99.90;;;;;;5035794;28;20045;-59
2022/06/16 02:29:42;;;;;;;8.63;4.13;;;18.00;99.90;;;;;;5036367;28;20040;-58
2022/06/16 02:32:32;;;;;;;8.00;4.10;;;18.00;99.90;;;;;;5037082;28;20310;-58
2022/06/16 02:35:40;;;;;;;14.40;4.40;;;18.00;99.90;;;;;;5036707;28;20037;-59
2022/06/16 02:38:19;;;;;;;7.13;3.50;;;18.00;99.90;;;;;;5001817;28;20139;-59
2022/06/16 02:41:09;;;;;;;6.13;3.90;;;18.10;99.90;;;;;;5036467;28;20075;-60
2022/06/16 02:43:49;;;;;;;10.25;4.25;;;18.00;99.90;;;;;;5029387;28;20061;-60
2022/06/16 02:46:19;;;;;;;9.20;4.30;;;18.00;99.90;;;;;;5036681;28;20126;-59
2022/06/16 02:48:59;;;;;;;9.57;4.22;;;18.00;99.90;;;;;;5035323;28;20158;-58
2022/06/16 02:51:45;;;;;;;8.80;4.72;;;18.00;99.90;;;;;;5035314;28;20045;-59
2022/06/16 02:54:45;;;;;;;13.57;4.57;;;18.00;99.90;;;;;;5035749;28;20061;-59
2022/06/16 02:57:26;;;;;;;11.35;4.47;;;18.00;99.90;;;;;;5034942;28;20055;-58
2022/06/16 02:59:58;;;;;;;9.43;4.10;;;18.00;99.90;;;;;;5036433;28;20044;-58
2022/06/16 03:02:27;;;;;;;18.52;5.18;;;18.00;99.90;;;;;;5024265;28;20059;-59
2022/06/16 03:04:57;;;;;;;11.18;4.57;;;18.00;99.90;;;;;;5023543;28;20106;-58
2022/06/16 03:07:25;;;;;;;16.38;5.05;;;18.00;99.90;;;;;;5039033;28;20045;-59
2022/06/16 03:10:06;;;;;;;16.90;4.60;;;18.10;99.90;;;;;;5038955;28;20041;-60
2022/06/16 03:12:35;;;;;;;16.73;5.00;;;18.20;99.90;;;;;;5038719;28;20114;-59
2022/06/16 03:15:05;;;;;;;10.15;5.07;;;18.20;99.90;;;;;;5038738;28;20045;-58
2022/06/16 03:17:32;;;;;;;14.40;4.65;;;18.20;99.90;;;;;;5055474;28;20742;-58
2022/06/16 03:19:59;;;;;;;12.95;4.75;;;18.20;99.90;;;;;;5017927;28;20044;-59
2022/06/16 03:22:26;;;;;;;15.40;5.35;;;18.30;99.90;;;;;;5038671;28;20113;-58
2022/06/16 03:24:53;;;;;;;13.52;5.25;;;18.30;99.90;;;;;;5038888;28;20061;-59
2022/06/16 03:27:22;;;;;;;13.48;5.45;;;18.50;99.90;;;;;;5022959;28;20045;-58
2022/06/16 03:29:49;;;;;;;13.13;5.32;;;18.60;99.90;;;;;;5037888;28;20060;-58
2022/06/16 03:32:16;;;;;;;9.30;4.45;;;18.60;99.90;;;;;;5038897;28;20871;-57
2022/06/16 03:34:43;;;;;;;15.13;5.22;;;18.70;99.90;;;;;;5038461;28;20045;-58
2022/06/16 03:37:13;;;;;;;7.82;4.78;;;18.80;99.90;;;;;;5023242;28;20053;-58
2022/06/16 03:39:44;;;;;;;10.50;4.00;;;18.80;99.90;;;;;;5037153;28;20140;-58
2022/06/16 03:42:15;;;;;;;14.52;5.20;;;18.80;99.90;;;;;;5038636;28;20474;-60
2022/06/16 03:44:42;;;;;;;8.75;4.60;;;18.80;99.90;;;;;;5038564;28;20154;-59
2022/06/16 03:47:12;;;;;;;10.82;4.70;;;18.80;99.90;;;;;;5037875;28;20048;-59
2022/06/16 03:49:41;;;;;;;12.65;5.82;;;18.90;99.90;;;;;;5038256;28;20107;-59
2022/06/16 03:52:08;;;;;;;16.38;7.28;;;18.80;99.90;;;;;;5037969;28;20049;-58
2022/06/16 03:54:38;;;;;;;15.40;5.72;;;18.80;99.90;;;;;;5038743;28;20103;-56
2022/06/16 03:57:08;;;;;;;13.10;5.55;;;18.80;99.90;;;;;;5038334;28;20049;-58
2022/06/16 03:59:35;;;;;;;14.10;5.20;;;18.80;99.90;;;;;;5037474;28;20048;-58
2022/06/16 04:02:12;;;;;;;9.85;5.38;;;18.70;99.90;;;;;;5037838;28;20763;-57
2022/06/16 04:04:40;;;;;;;12.40;5.93;;;18.70;99.90;;;;;;5038299;28;20746;-57
2022/06/16 04:07:09;;;;;;;19.70;5.57;;;18.70;99.90;;;;;;5039956;28;20054;-56
2022/06/16 04:09:43;;;;;;;12.88;5.13;;;18.60;99.90;;;;;;5037026;28;20056;-54
2022/06/16 04:12:09;;;;;;;14.55;4.50;;;18.50;99.90;;;;;;5037488;28;20041;-57
2022/06/16 04:14:38;;;;;;;10.15;4.95;;;18.40;99.90;;;;;;5037059;28;20581;-58
2022/06/16 04:17:06;;;;;;;8.13;4.90;;;18.40;99.90;;;;;;5038581;28;20051;-57
2022/06/16 04:20:11;;;;;;;7.65;4.57;;;18.30;99.90;;;;;;5036536;28;20075;-59
2022/06/16 04:22:34;;;;;;;13.27;5.03;;;18.30;99.90;;;;;;5037742;28;20674;-57
2022/06/16 04:25:13;;;;;;;9.30;5.38;;;18.40;99.90;;;;;;5037505;28;20140;-59
2022/06/16 04:27:43;;;;;;;11.35;4.18;;;18.40;99.90;;;;;;5037745;28;20162;-56
2022/06/16 04:30:14;;;;;;;14.93;5.15;;;18.40;99.90;;;;;;5036944;28;20041;-56
2022/06/16 04:32:43;;;;;;;20.70;6.03;;;18.40;99.90;;;;;;5037909;28;20045;-49
2022/06/16 04:35:11;;;;;;;11.95;5.07;;;18.40;99.90;;;;;;5037768;28;20041;-50
2022/06/16 04:37:48;;;;;;;18.83;4.85;;;18.30;99.90;;;;;;5037212;28;20053;-49
2022/06/16 04:40:16;;;;;;;14.65;5.00;;;18.20;99.90;;;;;;5019750;28;20045;-50
2022/06/16 04:42:43;;;;;;;10.20;5.10;;;18.10;99.90;;;;;;5020718;28;20114;-49
2022/06/16 04:45:11;;;;;;;17.92;5.53;;;17.90;99.90;;;;;;5037524;28;20056;-48
2022/06/16 04:47:39;;;;;;;16.17;5.28;;;17.90;99.90;;;;;;5036717;28;20114;-51
2022/06/16 04:50:10;;;;;;;8.43;4.10;;;17.80;99.90;;;;;;5036695;28;20045;-49
2022/06/16 04:52:38;;;;;;;13.40;4.65;;;17.80;99.90;;;;;;5036352;28;20064;-52
2022/06/16 04:55:05;;;;;;;11.88;4.68;;;17.90;99.90;;;;;;5020288;28;20153;-48
2022/06/16 04:57:36;;;;;;;17.42;4.80;;;17.90;99.90;;;;;;5038641;28;20118;-50
2022/06/16 05:00:22;;;;;;;12.05;4.63;;;18.00;99.90;;;;;;5038007;28;20060;-50
2022/06/16 05:02:59;;;;;;;12.63;4.68;;;18.00;99.90;;;;;;5036645;28;20126;-49
2022/06/16 05:05:42;;;;;;;16.38;5.18;;;18.00;99.90;;;;;;5036395;28;20450;-49
2022/06/16 05:08:32;;;;;;;15.68;4.28;;;17.90;99.90;;;;;;4999539;28;20625;-51
2022/06/16 05:11:16;;;;;;;7.50;4.55;;;17.90;99.90;;;;;;5036895;28;20041;-49
2022/06/16 05:14:03;;;;;;;11.37;4.07;;;17.90;99.90;;;;;;5037449;28;20628;-49
2022/06/16 05:16:53;;;;;;;17.35;4.18;;;17.90;99.90;;;;;;5036390;28;20912;-50
2022/06/16 05:19:32;;;;;;;11.40;4.75;;;18.00;99.90;;;;;;5034030;28;20060;-50
2022/06/16 05:22:06;;;;;;;11.88;4.03;;;18.10;99.90;;;;;;5034387;28;20061;-50
2022/06/16 05:24:52;;;;;;;8.25;4.22;;;18.20;99.90;;;;;;5037624;28;20051;-48
2022/06/16 05:27:24;;;;;;;12.75;4.60;;;18.40;99.90;;;;;;5036803;28;20584;-49
2022/06/16 05:30:21;;;;;;;11.35;4.85;;;18.50;99.90;;;;;;5016660;28;20660;-48
2022/06/16 05:33:03;;;;;;;13.27;6.20;;;18.70;99.90;;;;;;5021287;28;20045;-48
2022/06/16 05:36:02;;;;;;;7.43;3.83;;;18.80;99.90;;;;;;5036101;28;20138;-47
2022/06/16 05:38:47;;;;;;;9.85;3.78;;;19.00;99.90;;;;;;5035920;28;20564;-48
2022/06/16 05:41:28;;;;;;;11.27;4.57;;;19.20;99.90;;;;;;5037368;28;20453;-49
2022/06/16 05:44:14;;;;;;;10.43;4.78;;;19.40;99.90;;;;;;5036922;28;20059;-48
2022/06/16 05:46:43;;;;;;;10.55;3.92;;;19.50;99.90;;;;;;5037564;28;20423;-50
2022/06/16 05:49:15;;;;;;;20.15;5.60;;;19.60;99.90;;;;;;5035483;28;20094;-50
2022/06/16 05:51:44;;;;;;;17.15;4.55;;;19.80;99.90;;;;;;5034625;28;20098;-52
2022/06/16 05:54:14;;;;;;;5.80;4.20;;;20.00;99.90;;;;;;5036812;28;20321;-50
2022/06/16 05:56:44;;;;;;;8.70;4.38;;;20.20;99.90;;;;;;5035552;28;20056;-54
2022/06/16 05:59:11;;;;;;;15.13;4.65;;;20.40;99.90;;;;;;5035020;28;20041;-54
2022/06/16 06:01:43;;;;;;;11.65;4.53;;;20.60;99.90;;;;;;5033708;28;20881;-54
2022/06/16 06:04:12;;;;;;;8.65;4.10;;;20.70;99.90;;;;;;5035727;28;20624;-52
2022/06/16 06:06:42;;;;;;;7.47;3.58;;;20.90;99.90;;;;;;5034999;28;20049;-56
2022/06/16 06:17:35;;;;;;;18.70;4.47;;;21.70;99.90;;;;;;5037863;28;20102;-55
2022/06/16 06:20:03;;;;;;;13.20;3.63;;;21.90;99.90;;;;;;5035095;28;20102;-54
2022/06/16 06:22:30;;;;;;;9.13;4.10;;;22.00;99.90;;;;;;5016527;28;20038;-56
2022/06/16 06:25:11;;;;;;;13.85;4.97;;;22.00;99.90;;;;;;5031480;28;20048;-58
2022/06/16 06:27:44;;;;;;;9.80;4.35;;;22.00;99.90;;;;;;5034453;28;20103;-57
2022/06/16 06:30:15;;;;;;;12.55;3.63;;;21.90;99.90;;;;;;5035895;28;20037;-57
2022/06/16 06:32:42;;;;;;;15.48;5.07;;;21.60;99.90;;;;;;5036321;28;20051;-58
2022/06/16 06:35:10;;;;;;;12.65;4.13;;;21.50;99.90;;;;;;5034978;28;20052;-57
2022/06/16 06:37:37;;;;;;;19.17;4.20;;;21.30;99.90;;;;;;5035372;28;20674;-56
2022/06/16 06:40:05;;;;;;;13.23;4.93;;;21.10;99.90;;;;;;5034151;28;20045;-58
2022/06/16 06:42:32;;;;;;;9.02;3.95;;;21.00;99.90;;;;;;5036937;28;20461;-56
2022/06/16 06:45:02;;;;;;;8.80;3.92;;;21.00;99.90;;;;;;5002698;28;20099;-58
2022/06/16 06:47:31;;;;;;;13.52;4.65;;;21.10;99.90;;;;;;5037432;28;20056;-58
2022/06/16 06:49:58;;;;;;;15.75;5.15;;;21.30;99.90;;;;;;5035901;28;20106;-57
2022/06/16 06:52:25;;;;;;;16.17;5.10;;;21.50;99.90;;;;;;5035877;28;20118;-56
2022/06/16 06:54:52;;;;;;;14.15;4.07;;;21.60;99.90;;;;;;5036243;28;20442;-55
2022/06/16 06:57:22;;;;;;;10.98;4.50;;;21.90;99.90;;;;;;5036752;28;20119;-56
2022/06/16 06:59:50;;;;;;;18.52;5.03;;;22.10;99.90;;;;;;5035798;28;20044;-53
2022/06/16 07:02:18;;;;;;;14.75;4.22;;;22.40;99.90;;;;;;5036345;28;20045;-55
2022/06/16 07:04:45;;;;;;;13.38;3.97;;;22.60;99.90;;;;;;5037186;28;20045;-55
2022/06/16 07:07:16;;;;;;;11.52;4.10;;;22.90;99.90;;;;;;5036484;28;20053;-55
2022/06/16 07:09:43;;;;;;;15.27;4.53;;;23.20;99.90;;;;;;5034480;28;20095;-54
2022/06/16 07:12:13;;;;;;;17.17;3.55;;;23.40;99.90;;;;;;5036198;28;20458;-53
2022/06/16 07:14:44;;;;;;;15.65;4.93;;;23.40;99.90;;;;;;5033294;28;20132;-56
2022/06/16 07:17:13;;;;;;;19.08;4.13;;;23.50;99.90;;;;;;5034773;28;20033;-56
2022/06/16 07:19:40;;;;;;;16.13;6.22;;;23.60;99.90;;;;;;5035294;28;20071;-56
2022/06/16 07:22:08;;;;;;;15.13;5.18;;;23.70;99.90;;;;;;5032489;28;20041;-57
2022/06/16 07:24:36;;;;;;;9.13;4.03;;;23.80;99.90;;;;;;5028817;28;20053;-59
2022/06/16 07:27:03;;;;;;;11.77;4.38;;;23.90;99.90;;;;;;5022572;28;20056;-57
2022/06/16 07:29:31;;;;;;;16.65;4.50;;;24.10;99.90;;;;;;5033927;28;20051;-57
2022/06/16 07:32:05;;;;;;;15.48;5.55;;;24.20;99.90;;;;;;5036347;28;20045;-56
2022/06/16 07:34:32;;;;;;;15.90;4.68;;;24.40;99.90;;;;;;5035911;28;20053;-56
2022/06/16 07:36:59;;;;;;;13.32;4.43;;;24.60;99.90;;;;;;5037052;28;20077;-56
2022/06/16 07:39:26;;;;;;;15.02;4.95;;;24.70;99.90;;;;;;5035415;28;20091;-56
2022/06/16 07:41:53;;;;;;;10.45;5.10;;;24.70;99.90;;;;;;5035273;28;20708;-55
2022/06/16 07:44:21;;;;;;;16.70;4.95;;;24.80;99.90;;;;;;5034516;28;20041;-54
2022/06/16 07:46:48;;;;;;;23.15;5.50;;;24.80;99.90;;;;;;5037331;28;20091;-55
2022/06/16 07:49:25;;;;;;;13.80;4.82;;;24.90;99.90;;;;;;5038196;28;20041;-55
2022/06/16 07:51:55;;;;;;;16.52;4.85;;;25.00;99.90;;;;;;5039712;28;20045;-56
2022/06/16 07:54:23;;;;;;;15.25;4.30;;;25.10;99.90;;;;;;5039768;28;20046;-56
2022/06/16 07:57:11;;;;;;;14.57;4.68;;;25.10;99.90;;;;;;5039458;28;20052;-55
2022/06/16 07:59:48;;;;;;;16.55;4.95;;;25.00;99.90;;;;;;5039419;28;20045;-57
2022/06/16 08:02:16;;;;;;;15.13;4.93;;;24.90;99.90;;;;;;5039128;28;20051;-56
2022/06/16 08:04:44;;;;;;;14.93;4.45;;;24.90;99.90;;;;;;5037995;28;20946;-55
2022/06/16 08:07:11;;;;;;;16.27;4.30;;;24.90;99.90;;;;;;5038699;28;20056;-55
2022/06/16 08:09:38;;;;;;;12.63;4.70;;;24.90;99.90;;;;;;5038413;28;20037;-56
2022/06/16 08:12:08;;;;;;;11.55;4.93;;;24.90;99.90;;;;;;5039662;28;20455;-55
2022/06/16 08:14:41;;;;;;;12.75;5.07;;;24.90;99.90;;;;;;5039953;28;20684;-54
2022/06/16 08:17:15;;;;;;;12.43;4.07;;;25.00;99.90;;;;;;5039577;28;20040;-55
2022/06/16 08:19:42;;;;;;;19.75;4.38;;;25.20;99.90;;;;;;5038150;28;20044;-57
2022/06/16 08:22:12;;;;;;;13.75;5.28;;;25.30;99.90;;;;;;5039246;28;20056;-57
2022/06/16 08:24:40;;;;;;;11.65;4.35;;;25.30;99.90;;;;;;5033264;28;20597;-56
2022/06/16 08:27:08;;;;;;;17.13;4.25;;;25.30;99.90;;;;;;5039688;28;20071;-57
2022/06/16 08:29:37;;;;;;;15.25;5.63;;;25.30;99.90;;;;;;5018664;28;20057;-56
2022/06/16 08:32:04;;;;;;;13.60;4.65;;;25.30;99.90;;;;;;5019457;28;20041;-56
2022/06/16 08:34:31;;;;;;;16.95;4.60;;;25.20;99.90;;;;;;5018976;28;20107;-55
2022/06/16 08:36:58;;;;;;;13.07;5.43;;;25.10;99.90;;;;;;5019628;28;20041;-56
2022/06/16 08:39:25;;;;;;;15.75;4.90;;;25.00;99.90;;;;;;5018641;28;20037;-56
2022/06/16 08:42:08;;;;;;;18.85;4.70;;;25.00;99.90;;;;;;5033025;28;20064;-56
2022/06/16 08:44:56;;;;;;;18.02;4.43;;;24.90;99.90;;;;;;5039212;28;20073;-56
2022/06/16 08:47:34;;;;;;;14.00;4.15;;;25.00;99.90;;;;;;5037785;28;20137;-57
2022/06/16 08:50:22;;;;;;;14.70;4.75;;;25.10;99.90;;;;;;5038512;28;20567;-56
2022/06/16 08:53:16;;;;;;;13.80;4.30;;;25.20;99.90;;;;;;5037603;28;20573;-58
2022/06/16 08:56:01;;;;;;;17.45;4.45;;;25.30;99.90;;;;;;5038754;28;20045;-56
2022/06/16 08:58:50;;;;;;;21.13;5.50;;;25.60;99.90;;;;;;5036919;28;20048;-54
2022/06/16 09:01:49;;;;;;;16.83;4.50;;;25.80;99.90;;;;;;5038275;28;20049;-54
2022/06/16 09:04:38;;;;;;;9.05;4.97;;;26.00;99.90;;;;;;5030281;28;20103;-56
2022/06/16 09:07:13;;;;;;;18.58;4.47;;;26.10;99.90;;;;;;5038583;28;20041;-55
2022/06/16 09:12:43;;;;;;;15.93;4.38;;;26.30;99.90;;;;;;5037832;28;20076;-55
2022/06/16 09:15:38;;;;;;;14.57;5.28;;;26.20;99.00;;;;;;5038305;28;20040;-56
2022/06/16 09:18:38;;;;;;;17.67;5.55;;;26.10;99.90;;;;;;5038298;28;20148;-55
2022/06/16 09:21:43;;;;;;;12.38;5.47;;;25.90;99.90;;;;;;5036622;28;20055;-56
2022/06/16 09:24:13;;;;;;;17.35;4.40;;;25.80;99.90;;;;;;5024323;28;20060;-55
2022/06/16 09:26:52;;;;;;;21.35;4.97;;;26.10;99.90;;;;;;5036696;28;20045;-56
2022/06/16 09:29:31;;;;;;;23.50;5.47;;;26.30;99.90;;;;;;5036255;28;20046;-53
2022/06/16 09:32:34;;;;;;;14.23;5.63;;;26.60;99.90;;;;;;5034954;28;20053;-56
2022/06/16 09:35:18;;;;;;;13.32;5.32;;;26.70;98.50;;;;;;5037551;28;20132;-57
2022/06/16 09:37:55;;;;;;;16.27;5.22;;;26.70;99.30;;;;;;5038262;28;20074;-56
2022/06/16 09:40:26;;;;;;;;;;;26.60;98.10;;;;;;5038033;28;20053;-55
2022/06/16 09:43:05;;;;;;;19.20;5.55;;;26.50;98.20;;;;;;5035949;28;19976;-56
2022/06/16 09:45:35;;;;;;;11.15;3.85;;;26.50;99.50;;;;;;5037946;28;20047;-57
2022/06/16 09:48:08;;;;;;;10.70;5.00;;;26.50;99.90;;;;;;5036035;28;20491;-57
2022/06/16 09:50:38;;;;;;;11.95;4.43;;;26.50;99.90;;;;;;5035850;28;20041;-54
2022/06/16 09:53:27;;;;;;;17.70;4.50;;;26.50;99.90;;;;;;5037359;28;20503;-56
2022/06/16 09:56:03;;;;;;;15.50;5.63;;;26.40;99.70;;;;;;5035506;28;20045;-56
2022/06/16 09:58:36;;;;;;;12.50;4.53;;;26.40;98.80;;;;;;5037262;28;20047;-57
2022/06/16 10:01:08;;;;;;;7.72;3.58;;;26.30;99.90;;;;;;5037088;28;20051;-57
2022/06/16 10:03:42;;;;;;;11.70;5.15;;;26.30;99.90;;;;;;5037260;28;20048;-56
2022/06/16 10:06:30;;;;;;;10.50;4.55;;;26.30;99.80;;;;;;5037450;28;20518;-56
2022/06/16 10:09:14;;;;;;;14.38;4.10;;;26.20;99.90;;;;;;5036196;28;20056;-56
2022/06/16 10:12:11;;;;;;;12.77;4.43;;;26.20;99.90;;;;;;5037432;28;20139;-56
2022/06/16 10:14:38;;;;;;;17.13;5.22;;;26.40;99.90;;;;;;5037440;28;20039;-55
2022/06/16 10:17:09;;;;;;;15.52;7.05;;;26.60;99.60;;;;;;5035996;28;20052;-57
2022/06/16 10:19:44;;;;;;;13.85;5.70;;;26.70;98.70;;;;;;5035093;28;20095;-55
2022/06/16 10:22:14;;;;;;;10.80;4.45;;;26.70;97.80;;;;;;5037357;28;20055;-56
2022/06/16 10:25:13;;;;;;;7.70;4.32;;;26.80;96.10;;;;;;5036028;28;20090;-56
2022/06/16 10:27:45;;;;;;;;;;;27.00;94.80;;;;;;5034386;28;20055;-57
2022/06/16 10:30:22;;;;;;;20.05;5.20;;;27.20;93.00;;;;;;5036766;28;19935;-58
2022/06/16 10:33:14;;;;;;;12.25;4.30;;;27.50;92.30;;;;;;5036956;28;20893;-56
2022/06/16 10:35:59;;;;;;;12.52;4.20;;;27.70;93.80;;;;;;5037663;28;20525;-56
2022/06/16 10:38:36;;;;;;;8.98;4.07;;;28.00;87.50;;;;;;5036981;28;20047;-56
2022/06/16 10:41:21;;;;;;;24.02;5.50;;;28.30;87.80;;;;;;5036807;28;20045;-57
2022/06/16 10:43:52;;;;;;;12.63;4.32;;;28.60;84.80;;;;;;5031888;28;20045;-58
2022/06/16 10:46:29;;;;;;;13.88;4.20;;;28.70;87.00;;;;;;5036902;28;20041;-58
2022/06/16 10:49:00;;;;;;;15.48;4.00;;;28.80;79.50;;;;;;5034851;28;20063;-59
2022/06/16 10:51:29;;;;;;;12.93;4.32;;;29.00;78.90;;;;;;5037332;28;20041;-56
2022/06/16 10:54:11;;;;;;;18.05;4.40;;;29.10;77.10;;;;;;5036423;28;20801;-61
2022/06/16 10:56:43;;;;;;;;;;;29.20;75.00;;;;;;5037476;28;20118;-65
2022/06/16 10:59:26;;;;;;;15.70;4.22;;;29.30;73.60;;;;;;5035660;28;19925;-68
2022/06/16 11:02:13;;;;;;;12.32;4.28;;;29.30;74.40;;;;;;5035334;28;20060;-66
2022/06/16 11:04:42;;;;;;;9.38;4.38;;;29.30;75.10;;;;;;5036441;28;20605;-65
2022/06/16 11:07:19;;;;;;;13.25;4.53;;;29.40;73.00;;;;;;5035189;28;20041;-67
2022/06/16 11:09:46;;;;;;;10.18;4.43;;;29.40;66.50;;;;;;5034097;28;20553;-66
2022/06/16 11:12:20;;;;;;;10.63;4.32;;;29.30;64.70;;;;;;5036660;28;20553;-66
2022/06/16 11:15:01;;;;;;;9.98;4.45;;;29.40;66.70;;;;;;5036367;28;20041;-68
2022/06/16 11:17:29;;;;;;;25.63;4.45;;;29.50;66.00;;;;;;5035084;28;20052;-66
2022/06/16 11:20:13;;;;;;;16.98;5.00;;;29.70;63.90;;;;;;5035762;28;20096;-66
2022/06/16 11:22:44;;;;;;;10.98;3.95;;;29.70;61.60;;;;;;5039862;28;20407;-64
2022/06/16 11:25:17;;;;;;;9.48;4.35;;;29.50;58.90;;;;;;5040638;28;20041;-64
2022/06/16 11:27:56;;;;;;;9.85;4.25;;;29.10;60.30;;;;;;5036800;28;20041;-66
2022/06/16 11:30:33;;;;;;;11.23;4.28;;;28.80;59.30;;;;;;5039251;28;20756;-64
2022/06/16 11:33:01;;;;;;;13.05;4.15;;;28.50;63.00;;;;;;5022256;28;20047;-64
2022/06/16 11:35:53;;;;;;;9.48;4.68;;;28.20;64.20;;;;;;5039140;28;20041;-65
2022/06/16 11:38:29;;;;;;;6.40;4.15;;;28.00;65.20;;;;;;5037783;28;20052;-63
2022/06/16 11:41:07;;;;;;;8.68;4.03;;;27.90;66.00;;;;;;5040045;28;20036;-64
2022/06/16 11:44:02;;;;;;;10.32;3.97;;;27.80;61.10;;;;;;5037550;28;20049;-65
2022/06/16 11:46:33;;;;;;;12.77;3.97;;;27.60;63.20;;;;;;5031461;28;20798;-66
2022/06/16 11:49:09;;;;;;;10.23;4.20;;;27.40;64.60;;;;;;5038698;28;20037;-65
2022/06/16 11:51:43;;;;;;;9.68;3.45;;;27.30;66.40;;;;;;5027661;28;20708;-66
2022/06/16 11:54:19;;;;;;;12.68;4.63;;;27.30;67.40;;;;;;5038382;28;20090;-67
2022/06/16 11:57:21;;;;;;;12.83;4.10;;;27.30;64.90;;;;;;5033284;28;20120;-67
2022/06/16 12:00:03;;;;;;;13.15;4.35;;;27.30;66.10;;;;;;5035615;28;20451;-65
2022/06/16 12:03:01;;;;;;;5.70;3.80;;;27.30;67.10;;;;;;5017553;28;20057;-66
2022/06/16 12:05:56;;;;;;;9.35;4.18;;;27.50;64.60;;;;;;5017560;28;20045;-65
2022/06/16 12:08:35;;;;;;;17.88;3.88;;;27.80;65.00;;;;;;5016497;28;20042;-66
2022/06/16 12:11:26;;;;;;;15.23;4.25;;;28.20;62.50;;;;;;5017872;28;20368;-65
2022/06/16 12:14:26;;;;;;;12.13;4.05;;;28.40;60.30;;;;;;5017980;28;20077;-65
2022/06/16 12:17:19;;;;;;;8.20;4.00;;;28.80;63.50;;;;;;5037292;28;20047;-65
2022/06/16 12:20:00;;;;;;;8.98;3.72;;;28.90;57.60;;;;;;5036716;28;20671;-64
2022/06/16 12:22:58;;;;;;;7.38;3.63;;;28.90;55.60;;;;;;5035358;28;20730;-65
2022/06/16 12:25:31;;;;;;;12.02;3.47;;;28.90;57.60;;;;;;5036971;28;20123;-65
2022/06/16 12:28:48;;;;;;;10.25;3.53;;;29.00;55.40;;;;;;5035124;28;20037;-65
2022/06/16 12:31:21;;;;;;;8.98;3.20;;;29.10;54.40;;;;;;5032503;28;20060;-65
2022/06/16 12:34:06;;;;;;;8.55;3.22;;;29.40;54.10;;;;;;5034330;28;20877;-65
2022/06/16 12:36:38;;;;;;;14.55;4.10;;;29.60;52.40;;;;;;5036722;28;20098;-65
2022/06/16 12:39:47;;;;;;;4.78;2.67;;;29.80;51.10;;;;;;5036994;28;20044;-62
2022/06/16 12:42:17;;;;;;;11.68;4.43;;;29.80;49.70;;;;;;5024922;28;20053;-68
2022/06/16 12:44:51;;;;;;;10.88;3.25;;;29.80;50.80;;;;;;5035246;28;20053;-65
2022/06/16 12:47:19;;;;;;;6.93;3.38;;;29.90;50.70;;;;;;5036315;28;20521;-68
2022/06/16 12:49:58;;;;;;;5.85;3.00;;;30.10;50.10;;;;;;5035977;28;20083;-64
2022/06/16 12:53:01;;;;;;;5.30;3.63;;;30.40;49.90;;;;;;5036035;28;20041;-63
2022/06/16 12:55:42;;;;;;;8.13;3.22;;;30.60;48.60;;;;;;5003182;28;20053;-63
2022/06/16 12:58:27;;;;;;;5.10;2.88;;;30.70;48.50;;;;;;5034554;28;20105;-68
2022/06/16 13:00:58;;;;;;;6.90;3.30;;;30.90;48.30;;;;;;5035950;28;20041;-69
2022/06/16 13:04:07;;;;;;;5.68;3.50;;;31.00;48.80;;;;;;5036231;28;20048;-62
2022/06/16 13:06:35;;;;;;;6.90;3.22;;;31.20;48.20;;;;;;5035562;28;20051;-68
2022/06/16 13:09:06;;;;;;;7.78;2.88;;;31.40;48.40;;;;;;5017979;28;20044;-68
2022/06/16 13:11:43;;;;;;;8.35;2.83;;;31.50;47.60;;;;;;5035227;28;20044;-66
2022/06/16 13:14:33;;;;;;;5.43;3.00;;;31.60;45.90;;;;;;5034118;28;20625;-65
2022/06/16 13:17:04;;;;;;;4.65;2.75;;;31.60;44.90;;;;;;5036745;28;20048;-66
2022/06/16 13:19:51;;;;;;;6.75;3.20;;;31.60;46.60;;;;;;5035896;28;20060;-65
2022/06/16 13:22:23;;;;;;;7.63;3.42;;;31.70;45.70;;;;;;5035513;28;20044;-64
2022/06/16 13:24:50;;;;;;;5.18;2.75;;;31.70;46.30;;;;;;5035728;28;20053;-64
2022/06/16 13:27:52;;;;;;;6.25;2.72;;;31.70;44.00;;;;;;5036482;28;20499;-67
2022/06/16 13:30:41;;;;;;;4.75;3.13;;;31.50;43.10;;;;;;5022283;28;20061;-65
2022/06/16 13:33:07;;;;;;;7.68;3.00;;;31.30;43.90;;;;;;5014447;28;20053;-66
2022/06/16 13:35:43;;;;;;;7.82;3.22;;;31.20;43.70;;;;;;5016025;28;20045;-67
2022/06/16 13:38:10;;;;;;;11.10;3.03;;;31.30;44.00;;;;;;5015929;28;20047;-67
2022/06/16 13:40:43;;;;;;;5.35;3.10;;;31.40;42.50;;;;;;5015881;28;20058;-63